Map

Track Data

SID SEASON NUMBER BASIN SUBBASIN NAME ISO_TIME NATURE LAT LON WMO_WIND WMO_PRES WMO_AGENCY TRACK_TYPE DIST2LAND LANDFALL IFLAG USA_AGENCY USA_ATCF_ID USA_LAT USA_LON USA_RECORD USA_STATUS USA_WIND USA_PRES USA_SSHS USA_R34_NE USA_R34_SE USA_R34_SW USA_R34_NW USA_R50_NE USA_R50_SE USA_R50_SW USA_R50_NW USA_R64_NE USA_R64_SE USA_R64_SW USA_R64_NW USA_POCI USA_ROCI USA_RMW USA_EYE TOKYO_LAT TOKYO_LON TOKYO_GRADE TOKYO_WIND TOKYO_PRES TOKYO_R50_DIR TOKYO_R50_LONG TOKYO_R50_SHORT TOKYO_R30_DIR TOKYO_R30_LONG TOKYO_R30_SHORT TOKYO_LAND CMA_LAT CMA_LON CMA_CAT CMA_WIND CMA_PRES HKO_LAT HKO_LON HKO_CAT HKO_WIND HKO_PRES NEWDELHI_LAT NEWDELHI_LON NEWDELHI_GRADE NEWDELHI_WIND NEWDELHI_PRES NEWDELHI_CI NEWDELHI_DP NEWDELHI_POCI REUNION_LAT REUNION_LON REUNION_TYPE REUNION_WIND REUNION_PRES REUNION_TNUM REUNION_CI REUNION_RMW REUNION_R34_NE REUNION_R34_SE REUNION_R34_SW REUNION_R34_NW REUNION_R50_NE REUNION_R50_SE REUNION_R50_SW REUNION_R50_NW REUNION_R64_NE REUNION_R64_SE REUNION_R64_SW REUNION_R64_NW BOM_LAT BOM_LON BOM_TYPE BOM_WIND BOM_PRES BOM_TNUM BOM_CI BOM_RMW BOM_R34_NE BOM_R34_SE BOM_R34_SW BOM_R34_NW BOM_R50_NE BOM_R50_SE BOM_R50_SW BOM_R50_NW BOM_R64_NE BOM_R64_SE BOM_R64_SW BOM_R64_NW BOM_ROCI BOM_POCI BOM_EYE BOM_POS_METHOD BOM_PRES_METHOD NADI_LAT NADI_LON NADI_CAT NADI_WIND NADI_PRES WELLINGTON_LAT WELLINGTON_LON WELLINGTON_WIND WELLINGTON_PRES DS824_LAT DS824_LON DS824_STAGE DS824_WIND DS824_PRES TD9636_LAT TD9636_LON TD9636_STAGE TD9636_WIND TD9636_PRES TD9635_LAT TD9635_LON TD9635_WIND TD9635_PRES TD9635_ROCI NEUMANN_LAT NEUMANN_LON NEUMANN_CLASS NEUMANN_WIND NEUMANN_PRES MLC_LAT MLC_LON MLC_CLASS MLC_WIND MLC_PRES USA_GUST BOM_GUST BOM_GUST_PER REUNION_GUST REUNION_GUST_PER USA_SEAHGT USA_SEARAD_NE USA_SEARAD_SE USA_SEARAD_SW USA_SEARAD_NW STORM_SPEED STORM_DIR
1956118N08091 1956 38 NI BB NOT_NAMED 1956-04-26 18:00:00 TS 8.10000 90.9000 main 551 551 O________O____ jtwc_io IO021956 8.10000 90.9000 -1 8.10000 90.9000 TC 5 315
1956118N08091 1956 38 NI BB NOT_NAMED 1956-04-26 21:00:00 TS 8.26752 90.7325 main 581 581 P________P____ IO021956 8.26752 90.7325 -1 8.26752 90.7325 TC 4 316
1956118N08091 1956 38 NI BB NOT_NAMED 1956-04-27 00:00:00 TS 8.40000 90.6000 main 597 597 O________O____ jtwc_io IO021956 8.40000 90.6000 -1 8.40000 90.6000 TC 25 3 315
1956118N08091 1956 38 NI BB NOT_NAMED 1956-04-27 03:00:00 TS 8.47555 90.5244 main 612 612 P________PO___ IO021956 8.47249 90.5275 -1 8.47249 90.5275 TC 25 8.50000 90.5000 1 2 314
1956118N08091 1956 38 NI BB NOT_NAMED 1956-04-27 06:00:00 TS 8.51417 90.4831 main 612 612 O________OP___ jtwc_io IO021956 8.50000 90.5000 -1 8.50000 90.5000 TC 25 8.57084 90.4154 1 1 313
1956118N08091 1956 38 NI BB NOT_NAMED 1956-04-27 09:00:00 TS 8.53637 90.4576 main 612 612 P________PP___ IO021956 8.50750 90.4925 -1 8.50750 90.4925 TC 25 8.61334 90.3647 1 0 0
1956118N08091 1956 38 NI BB NOT_NAMED 1956-04-27 12:00:00 TS 8.53306 90.4605 main 612 612 O________OP___ jtwc_io IO021956 8.50000 90.5000 -1 8.50000 90.5000 TC 25 8.59918 90.3816 1 1 131
1956118N08091 1956 38 NI BB NOT_NAMED 1956-04-27 15:00:00 TS 8.50000 90.5000 main 612 597 P________PO___ IO021956 8.50000 90.5000 -1 8.50000 90.5000 TC 25 8.50000 90.5000 1 1 130
1956118N08091 1956 38 NI BB NOT_NAMED 1956-04-27 18:00:00 TS 8.43860 90.5732 main 597 587 O________OP___ jtwc_io IO021956 8.50000 90.5000 -1 8.50000 90.5000 TC 25 8.31581 90.7196 1 2 132
1956118N08091 1956 38 NI BB NOT_NAMED 1956-04-27 21:00:00 TS 8.35162 90.6700 main 587 581 P________PP___ IO021956 8.44745 90.5524 -1 8.44745 90.5524 TC 25 8.15996 90.9052 1 1 134
1956118N08091 1956 38 NI BB NOT_NAMED 1956-04-28 00:00:00 TS 8.39138 90.6295 main 597 597 O________OP___ jtwc_io IO021956 8.50000 90.5000 -1 8.50000 90.5000 TC 25 8.17412 90.8884 1 3 316
1956118N08091 1956 38 NI BB NOT_NAMED 1956-04-28 03:00:00 TS 8.58249 90.4445 main 627 627 P________PO___ IO021956 8.62373 90.4167 -1 8.62373 90.4167 TC 25 8.50000 90.5000 1 13 313
1956118N08091 1956 38 NI BB NOT_NAMED 1956-04-28 06:00:00 TS 9.28314 89.6648 main 734 734 O________OP___ jtwc_io IO021956 9.20000 89.8000 -1 9.20000 89.8000 TC 25 9.44942 89.3945 1 32 311
1956118N08091 1956 38 NI BB NOT_NAMED 1956-04-28 09:00:00 TS 10.6825 88.0343 main 764 662 P________PP___ IO021956 10.6812 88.0889 -1 10.6812 88.0889 TC 30 10.6852 87.9250 1 44 310
1956118N08091 1956 38 NI BB NOT_NAMED 1956-04-28 12:00:00 TS 12.1174 86.2552 main 662 512 O________OP___ jtwc_io IO021956 12.2000 86.2000 -1 12.2000 86.2000 TC 35 11.9522 86.3657 1 37 308
1956118N08091 1956 38 NI BB NOT_NAMED 1956-04-28 15:00:00 TS 12.9237 85.0635 main 512 432 P________PO___ IO021956 12.8856 85.0952 -1 12.8856 85.0952 TC 35 13.0000 85.0000 2 22 302
1956118N08091 1956 38 NI BB NOT_NAMED 1956-04-28 18:00:00 TS 13.2986 84.3524 main 432 377 O________OP___ jtwc_io IO021956 13.2000 84.4000 -1 13.2000 84.4000 TC 35 13.4959 84.2572 2 13 299
1956118N08091 1956 38 NI BB NOT_NAMED 1956-04-28 21:00:00 TS 13.5763 83.8572 main 377 337 P________PP___ IO021956 13.4867 83.9118 -1 13.4867 83.9118 TC 35 13.7555 83.7480 2 10 298
1956118N08091 1956 38 NI BB NOT_NAMED 1956-04-29 00:00:00 TS 13.7626 83.4467 main 332 281 O________OP___ jtwc_io IO021956 13.7000 83.5000 -1 13.7000 83.5000 TC 35 13.8877 83.3401 2 10 293
1956118N08091 1956 38 NI BB NOT_NAMED 1956-04-29 03:00:00 TS 13.9667 82.8916 main 281 220 P________PO___ IO021956 13.9500 82.8874 -1 13.9500 82.8874 TC 35 14.0000 82.9000 3 13 292
1956118N08091 1956 38 NI BB NOT_NAMED 1956-04-29 06:00:00 TS 14.2310 82.2353 main 209 151 O________OP___ jtwc_io IO021956 14.2000 82.2000 -1 14.2000 82.2000 TC 35 14.2929 82.3059 3 14 293
1956118N08091 1956 38 NI BB NOT_NAMED 1956-04-29 09:00:00 TS 14.4978 81.5784 main 151 76 P________PP___ IO021956 14.4570 81.5448 -1 14.4570 81.5448 TC 30 14.5795 81.6455 3 15 291
1956118N08091 1956 38 NI BB NOT_NAMED 1956-04-29 12:00:00 TS 14.7422 80.8291 main 65 0 O________OP___ jtwc_io IO021956 14.7000 80.8000 -1 14.7000 80.8000 TC 25 14.8265 80.8874 3 16 287
1956118N08091 1956 38 NI BB NOT_NAMED 1956-04-29 15:00:00 TS 14.9628 79.9651 main 0 0 P________PO___ IO021956 14.9442 79.9477 -1 14.9442 79.9477 TC 25 15.0000 80.0000 1 19 280
1956118N08091 1956 38 NI BB NOT_NAMED 1956-04-29 18:00:00 TS 15.0835 78.8784 main 0 0 O________OP___ jtwc_io IO021956 15.1000 78.9000 -1 15.1000 78.9000 TC 25 15.0504 78.8353 1 24 273
1956118N08091 1956 38 NI AS NOT_NAMED 1956-04-29 21:00:00 TS 15.0673 77.5347 main 0 0 P________PP___ IO021956 15.0890 77.5194 -1 15.0890 77.5194 TC 25 15.0240 77.5653 1 25 268
1956118N08091 1956 38 NI AS NOT_NAMED 1956-04-30 00:00:00 TS 14.9866 76.2460 main 0 0 O________OP___ jtwc_io IO021956 15.0000 76.2000 -1 15.0000 76.2000 TC 25 14.9598 76.3380 1 22 266
1956118N08091 1956 38 NI AS NOT_NAMED 1956-04-30 03:00:00 TS 14.9227 75.3101 main 0 0 P________PO___ IO021956 14.9340 75.3151 -1 14.9340 75.3151 TC 25 14.9000 75.3000 1 15 267
1956118N08091 1956 38 NI AS NOT_NAMED 1956-04-30 06:00:00 TS 14.8970 74.6712 main 0 0 O________OP___ jtwc_io IO021956 14.9000 74.7000 -1 14.9000 74.7000 TC 25 14.8910 74.6137 1 11 270
1956118N08091 1956 38 NI AS NOT_NAMED 1956-04-30 09:00:00 TS 14.9235 74.1653 main 0 0 P________PP___ IO021956 14.9347 74.1826 -1 14.9347 74.1826 TC 25 14.9011 74.1307 1 9 276
1956118N08091 1956 38 NI AS NOT_NAMED 1956-04-30 12:00:00 TS 14.9786 73.7941 main 15 15 O________OP___ jtwc_io IO021956 15.0000 73.8000 -1 15.0000 73.8000 TC 25 14.9359 73.7823 1 7 279
1956118N08091 1956 38 NI AS NOT_NAMED 1956-04-30 15:00:00 TS 15.0283 73.4800 main 44 44 P________PO___ IO021956 15.0424 73.4700 -1 15.0424 73.4700 TC 25 15.0000 73.5000 1 6 281
1956118N08091 1956 38 NI AS NOT_NAMED 1956-04-30 18:00:00 TS 15.0891 73.1928 main 75 75 O________OP___ jtwc_io IO021956 15.1000 73.2000 -1 15.1000 73.2000 TC 25 15.0673 73.1785 1 5 285
1956118N08091 1956 38 NI AS NOT_NAMED 1956-04-30 21:00:00 TS 15.1689 72.9348 main 96 96 P________PP___ IO021956 15.1699 72.9499 -1 15.1699 72.9499 TC 25 15.1669 72.9046 1 5 294
1956118N08091 1956 38 NI AS NOT_NAMED 1956-05-01 00:00:00 TS 15.3027 72.6845 main 112 112 O________OP___ jtwc_io IO021956 15.3000 72.7000 -1 15.3000 72.7000 TC 25 15.3080 72.6534 1 6 304
1956118N08091 1956 38 NI AS NOT_NAMED 1956-05-01 03:00:00 TS 15.5133 72.4050 main 135 130 P________PO___ IO021956 15.5200 72.4075 -1 15.5200 72.4075 TC 25 15.5000 72.4000 1 7 310
1956118N08091 1956 38 NI AS NOT_NAMED 1956-05-01 06:00:00 TS 15.7819 72.0904 main 150 150 O________OP___ jtwc_io IO021956 15.8000 72.1000 -1 15.8000 72.1000 TC 25 15.7458 72.0711 1 8 313
1956118N08091 1956 38 NI AS NOT_NAMED 1956-05-01 09:00:00 TS 16.0751 71.7752 main 166 166 P________PP___ IO021956 16.0925 71.7925 -1 16.0925 71.7925 TC 25 16.0403 71.7407 1 8 316
1956118N08091 1956 38 NI AS NOT_NAMED 1956-05-01 12:00:00 TS 16.3882 71.4800 main 192 192 O________OP___ jtwc_io IO021956 16.4000 71.5000 -1 16.4000 71.5000 TC 25 16.3646 71.4399 1 8 319
1956118N08091 1956 38 NI AS NOT_NAMED 1956-05-01 15:00:00 TS 16.6950 71.2084 main 223 220 P________PO___ IO021956 16.6925 71.2125 -1 16.6925 71.2125 TC 25 16.7000 71.2000 1 8 325
1956118N08091 1956 38 NI AS NOT_NAMED 1956-05-01 18:00:00 TS 17.0125 71.0174 main 232 227 O________OP___ jtwc_io IO021956 17.0000 71.0000 -1 17.0000 71.0000 TC 25 17.0313 71.0436 1 7 338
1956118N08091 1956 38 NI AS NOT_NAMED 1956-05-01 21:00:00 TS 17.3474 70.9315 main 234 218 P________PP___ IO021956 17.3400 70.9124 -1 17.3400 70.9124 TC 25 17.3572 70.9569 1 7 351
1956118N08091 1956 38 NI AS NOT_NAMED 1956-05-02 00:00:00 TS 17.6897 70.9084 main 218 212 O________OP___ jtwc_io IO021956 17.7000 70.9000 -1 17.7000 70.9000 TC 25 17.6795 70.9168 1 7 357
1956118N08091 1956 38 NI AS NOT_NAMED 1956-05-02 03:00:00 NR 18.0000 70.9000 main 212 __________O___ IO021956 -1 TC 18.0000 70.9000 1 6 0

About IBTrACS Database

This database is a web-friendly format of International Best Track Archive for Climate Stewardship (IBTrACS), a global best track data archive curated by NOAA dating back to 1842.

Updated: 2021-10-25